createdAt,value
2018-05-12T00:00:48.099Z,18.60
2018-05-12T00:03:15.626Z,16.50
2018-05-12T00:05:43.997Z,19.03
2018-05-12T00:08:12.301Z,16.17
2018-05-12T00:10:39.899Z,17.10
2018-05-12T00:13:07.449Z,17.73
2018-05-12T00:15:34.975Z,17.73
2018-05-12T00:18:02.557Z,17.90
2018-05-12T00:20:30.136Z,17.17
2018-05-12T00:22:57.681Z,17.00
2018-05-12T00:25:25.282Z,16.93
2018-05-12T00:27:53.545Z,17.43
2018-05-12T00:30:21.112Z,17.13
2018-05-12T00:32:48.729Z,17.33
2018-05-12T00:35:16.315Z,17.07
2018-05-12T00:37:44.676Z,19.07
2018-05-12T00:40:12.284Z,16.93
2018-05-12T00:42:39.832Z,17.47
2018-05-12T00:45:07.411Z,17.73
2018-05-12T00:47:35.748Z,20.37
2018-05-12T00:50:03.349Z,18.53
2018-05-12T00:52:31.725Z,20.20
2018-05-12T00:54:59.301Z,17.20
2018-05-12T00:57:26.924Z,18.50
2018-05-12T00:59:54.469Z,18.57
2018-05-12T01:02:21.996Z,18.67
2018-05-12T01:04:49.577Z,19.60
2018-05-12T01:07:17.093Z,19.23
2018-05-12T01:09:45.785Z,16.90
2018-05-12T01:12:14.142Z,17.27
2018-05-12T01:14:41.731Z,18.07
2018-05-12T01:17:09.270Z,17.83
2018-05-12T01:19:37.730Z,17.77
2018-05-12T01:22:05.361Z,18.50
2018-05-12T01:24:32.906Z,17.73
2018-05-12T01:27:00.473Z,18.37
2018-05-12T01:29:28.030Z,18.77
2018-05-12T01:31:55.543Z,18.97
2018-05-12T01:34:23.078Z,18.33
2018-05-12T01:36:50.630Z,21.83
2018-05-12T01:39:18.178Z,19.03
2018-05-12T01:41:45.729Z,19.20
2018-05-12T01:44:13.265Z,19.63
2018-05-12T01:46:42.217Z,19.53
2018-05-12T01:49:09.750Z,19.33
2018-05-12T01:51:37.292Z,19.97
2018-05-12T01:54:04.852Z,19.90
2018-05-12T01:56:32.422Z,23.00
2018-05-12T01:59:00.004Z,20.60
2018-05-12T02:01:27.654Z,19.93
2018-05-12T02:03:55.245Z,24.03
2018-05-12T02:06:22.820Z,21.27
2018-05-12T02:08:50.369Z,19.50
2018-05-12T02:11:18.742Z,21.87
2018-05-12T02:13:46.277Z,21.83
2018-05-12T02:16:13.818Z,20.90
2018-05-12T02:18:41.386Z,21.73
2018-05-12T02:21:08.966Z,20.63
2018-05-12T02:23:36.516Z,21.13
2018-05-12T02:26:04.193Z,22.70
2018-05-12T02:28:31.757Z,20.83
2018-05-12T02:30:59.307Z,21.33
2018-05-12T02:33:27.692Z,20.37
2018-05-12T02:35:55.222Z,21.63
2018-05-12T02:38:22.773Z,22.93
2018-05-12T02:40:50.305Z,23.90
2018-05-12T02:43:17.836Z,22.67
2018-05-12T02:45:45.387Z,22.50
2018-05-12T02:48:12.941Z,21.87
2018-05-12T02:50:40.545Z,22.77
2018-05-12T02:53:08.090Z,22.90
2018-05-12T02:55:36.423Z,22.20
2018-05-12T02:58:03.958Z,22.03
2018-05-12T03:00:32.315Z,21.63
2018-05-12T03:02:59.850Z,20.10
2018-05-12T03:05:27.704Z,22.13
2018-05-12T03:07:56.051Z,24.40
2018-05-12T03:10:23.640Z,22.50
2018-05-12T03:12:51.176Z,21.57
2018-05-12T03:15:18.767Z,21.77
2018-05-12T03:17:46.298Z,21.60
2018-05-12T03:20:13.853Z,20.33
2018-05-12T03:22:41.447Z,19.90
2018-05-12T03:25:09.042Z,22.13
2018-05-12T03:27:37.430Z,21.10
2018-05-12T03:30:05.715Z,19.40
2018-05-12T03:32:33.287Z,21.33
2018-05-12T03:35:00.834Z,22.57
2018-05-12T03:37:28.377Z,21.40
2018-05-12T03:39:56.659Z,22.80
2018-05-12T03:42:24.974Z,20.90
2018-05-12T03:44:52.495Z,22.80
2018-05-12T03:47:20.825Z,23.37
2018-05-12T03:49:48.371Z,21.53
2018-05-12T03:52:15.948Z,24.77
2018-05-12T03:54:43.503Z,26.03
2018-05-12T03:57:11.062Z,23.43
2018-05-12T03:59:38.658Z,25.20
2018-05-12T04:02:06.259Z,22.17
2018-05-12T04:04:45.669Z,24.43
2018-05-12T04:07:24.854Z,23.83
2018-05-12T04:10:04.290Z,23.10
2018-05-12T04:12:39.747Z,23.03
2018-05-12T04:15:07.394Z,23.63
2018-05-12T04:17:34.947Z,24.83
2018-05-12T04:20:02.568Z,23.27
2018-05-12T04:22:30.132Z,21.73
2018-05-12T04:24:57.679Z,23.77
2018-05-12T04:27:26.247Z,22.80
2018-05-12T04:29:54.668Z,23.33
2018-05-12T04:32:22.285Z,23.03
2018-05-12T04:34:49.925Z,23.20
2018-05-12T04:37:17.473Z,28.50
2018-05-12T04:39:45.056Z,27.73
2018-05-12T04:42:12.578Z,24.63
2018-05-12T04:44:40.172Z,25.20
2018-05-12T04:47:07.721Z,24.30
2018-05-12T04:49:35.254Z,28.00
2018-05-12T04:52:02.802Z,25.33
2018-05-12T04:54:30.350Z,24.93
2018-05-12T04:56:58.773Z,26.53
2018-05-12T04:59:26.313Z,24.93
2018-05-12T05:01:53.876Z,27.23
2018-05-12T05:04:21.431Z,26.03
2018-05-12T05:06:48.992Z,24.77
2018-05-12T05:09:16.525Z,20.70
2018-05-12T05:11:44.830Z,24.53
2018-05-12T05:14:12.390Z,31.43
2018-05-12T05:16:39.939Z,24.93
2018-05-12T05:19:08.534Z,25.97
2018-05-12T05:21:36.081Z,28.97
2018-05-12T05:24:03.623Z,25.50
2018-05-12T05:26:31.986Z,28.30
2018-05-12T05:28:59.580Z,25.43
2018-05-12T05:31:27.101Z,24.23
2018-05-12T05:33:54.697Z,27.27
2018-05-12T05:36:22.269Z,30.63
2018-05-12T05:38:49.927Z,28.53
2018-05-12T05:41:17.938Z,29.10
2018-05-12T05:43:45.511Z,31.43
2018-05-12T05:46:13.044Z,27.43
2018-05-12T05:48:40.590Z,31.50
2018-05-12T05:51:08.175Z,35.23
2018-05-12T05:53:35.698Z,30.03
2018-05-12T05:56:03.261Z,30.50
2018-05-12T05:58:30.904Z,35.30
2018-05-12T06:00:58.477Z,34.27
2018-05-12T06:03:27.317Z,35.67
2018-05-12T06:05:54.866Z,34.40
2018-05-12T06:08:22.378Z,36.40
2018-05-12T06:10:49.917Z,37.60
2018-05-12T06:13:18.227Z,33.10
2018-05-12T06:15:45.790Z,38.33
2018-05-12T06:18:13.406Z,36.37
2018-05-12T06:20:41.790Z,33.33
2018-05-12T06:23:10.183Z,28.27
2018-05-12T06:25:37.781Z,38.13
2018-05-12T06:28:05.330Z,36.53
2018-05-12T06:30:32.882Z,40.27
2018-05-12T06:33:00.433Z,40.03
2018-05-12T06:35:27.955Z,35.97
2018-05-12T06:37:55.543Z,37.00
2018-05-12T06:40:23.841Z,39.53
2018-05-12T06:42:51.381Z,34.97
2018-05-12T06:45:18.904Z,33.63
2018-05-12T06:47:46.438Z,31.73
2018-05-12T06:50:13.966Z,33.73
2018-05-12T06:52:42.243Z,33.63
2018-05-12T06:55:09.798Z,36.43
2018-05-12T06:57:37.333Z,40.17
2018-05-12T07:00:04.917Z,33.57
2018-05-12T07:02:32.463Z,34.30
2018-05-12T07:05:00.807Z,30.40
2018-05-12T07:07:28.404Z,34.17
2018-05-12T07:09:57.295Z,32.20
2018-05-12T07:12:25.667Z,34.70
2018-05-12T07:14:53.151Z,31.37
2018-05-12T07:17:20.700Z,32.40
2018-05-12T07:19:48.476Z,32.77
2018-05-12T07:22:16.052Z,33.87
2018-05-12T07:24:43.606Z,30.53
2018-05-12T07:27:11.175Z,32.33
2018-05-12T07:29:38.821Z,33.73
2018-05-12T07:32:06.363Z,31.67
2018-05-12T07:34:33.890Z,30.87
2018-05-12T07:37:01.503Z,29.23
2018-05-12T07:39:29.063Z,34.80
2018-05-12T07:41:56.628Z,31.13
2018-05-12T07:44:25.001Z,26.93
2018-05-12T07:46:52.564Z,30.40
2018-05-12T07:49:20.100Z,29.07
2018-05-12T07:51:47.687Z,29.03
2018-05-12T07:54:15.322Z,29.63
2018-05-12T07:56:42.930Z,27.90
2018-05-12T07:59:11.417Z,35.83
2018-05-12T08:01:39.065Z,28.27
2018-05-12T08:04:06.613Z,30.60
2018-05-12T08:06:34.174Z,31.97
2018-05-12T08:09:01.761Z,27.33
2018-05-12T08:11:31.081Z,27.40
2018-05-12T08:13:58.708Z,27.77
2018-05-12T08:16:26.266Z,27.60
2018-05-12T08:18:53.801Z,25.40
2018-05-12T08:21:21.318Z,25.83
2018-05-12T08:23:48.854Z,26.97
2018-05-12T08:26:17.186Z,27.77
2018-05-12T08:28:44.769Z,25.70
2018-05-12T08:31:12.290Z,27.50
2018-05-12T08:33:40.614Z,27.33
2018-05-12T08:36:08.163Z,25.40
2018-05-12T08:38:35.693Z,26.40
2018-05-12T08:41:04.013Z,26.17
2018-05-12T08:43:31.526Z,24.07
2018-05-12T08:45:59.857Z,23.70
2018-05-12T08:48:27.379Z,26.10
2018-05-12T08:50:54.935Z,29.60
2018-05-12T08:53:22.732Z,27.27
2018-05-12T08:55:50.289Z,24.93
2018-05-12T08:58:18.090Z,25.27
2018-05-12T09:00:45.946Z,26.43
2018-05-12T09:03:13.618Z,30.03
2018-05-12T09:05:41.997Z,24.20
2018-05-12T09:08:09.518Z,25.47
2018-05-12T09:10:37.104Z,22.93
2018-05-12T09:13:04.628Z,23.30
2018-05-12T09:15:32.585Z,22.50
2018-05-12T09:18:00.129Z,23.93
2018-05-12T09:20:28.507Z,23.80
2018-05-12T09:22:56.809Z,21.47
2018-05-12T09:25:24.368Z,21.50
2018-05-12T09:27:52.621Z,21.73
2018-05-12T09:30:20.938Z,22.20
2018-05-12T09:32:48.470Z,20.60
2018-05-12T09:35:16.237Z,21.77
2018-05-12T09:37:43.767Z,21.33
2018-05-12T09:40:12.098Z,20.03
2018-05-12T09:42:39.770Z,20.17
2018-05-12T09:45:07.240Z,18.70
2018-05-12T09:47:34.806Z,17.93
2018-05-12T09:50:02.406Z,16.23
2018-05-12T09:52:29.970Z,18.77
2018-05-12T09:54:57.494Z,16.67
2018-05-12T09:57:25.049Z,16.37
2018-05-12T09:59:52.581Z,14.17
2018-05-12T10:02:20.149Z,14.57
2018-05-12T10:04:47.684Z,15.43
2018-05-12T10:07:15.222Z,15.33
2018-05-12T10:09:42.804Z,14.98
2018-05-12T10:12:10.332Z,15.88
2018-05-12T10:14:38.649Z,14.68
2018-05-12T10:17:06.198Z,15.82
2018-05-12T10:19:33.767Z,15.65
2018-05-12T10:22:01.295Z,17.55
2018-05-12T10:24:29.663Z,17.55
2018-05-12T10:26:57.977Z,16.80
2018-05-12T10:29:25.532Z,16.30
2018-05-12T10:31:54.475Z,16.62
2018-05-12T10:34:23.289Z,16.12
2018-05-12T10:36:51.010Z,12.18
2018-05-12T10:39:18.563Z,13.52
2018-05-12T10:41:46.094Z,8.13
2018-05-12T10:44:13.725Z,8.52
2018-05-12T10:46:42.029Z,9.55
2018-05-12T10:49:09.637Z,15.18
2018-05-12T10:51:37.239Z,13.50
2018-05-12T10:54:04.764Z,14.10
2018-05-12T10:56:32.690Z,12.15
2018-05-12T10:59:00.205Z,13.62
2018-05-12T11:01:27.977Z,16.05
2018-05-12T11:03:55.549Z,14.75
2018-05-12T11:06:23.091Z,14.05
2018-05-12T11:08:51.372Z,13.68
2018-05-12T11:11:19.697Z,13.00
2018-05-12T11:13:48.045Z,15.00
2018-05-12T11:16:15.731Z,12.65
2018-05-12T11:18:43.278Z,11.32
2018-05-12T11:21:10.863Z,10.18
2018-05-12T11:23:38.445Z,10.85
2018-05-12T11:26:06.166Z,8.70
2018-05-12T11:28:33.754Z,5.65
2018-05-12T11:31:01.526Z,5.20
2018-05-12T11:33:29.098Z,4.62
2018-05-12T11:35:56.968Z,5.15
2018-05-12T11:38:27.205Z,5.60
2018-05-12T11:40:55.506Z,5.65
2018-05-12T11:43:23.047Z,5.80
2018-05-12T11:45:51.354Z,6.25
2018-05-12T11:48:18.908Z,7.43
2018-05-12T11:50:46.530Z,6.18
2018-05-12T11:53:14.115Z,5.97
2018-05-12T11:55:42.430Z,5.40
2018-05-12T11:58:09.987Z,5.45
2018-05-12T12:00:37.632Z,5.05
2018-05-12T12:03:06.305Z,4.78
2018-05-12T12:05:34.097Z,5.47
2018-05-12T12:08:01.673Z,6.30
2018-05-12T12:10:29.302Z,5.05
2018-05-12T12:12:56.824Z,5.57
2018-05-12T12:15:25.107Z,7.07
2018-05-12T12:17:52.682Z,5.70
2018-05-12T12:20:20.222Z,5.30
2018-05-12T12:22:48.855Z,6.18
2018-05-12T12:25:16.383Z,5.28
2018-05-12T12:27:43.931Z,5.80
2018-05-12T12:30:12.259Z,7.12
2018-05-12T12:32:39.810Z,5.68
2018-05-12T12:35:07.314Z,8.05
2018-05-12T12:37:35.649Z,5.22
2018-05-12T12:40:03.778Z,4.45
2018-05-12T12:42:31.846Z,3.60
2018-05-12T12:45:00.207Z,3.58
2018-05-12T12:47:27.708Z,3.75
2018-05-12T12:49:56.018Z,2.40
2018-05-12T12:52:23.586Z,5.20
2018-05-12T12:54:51.146Z,2.70
2018-05-12T12:57:18.660Z,5.03
2018-05-12T12:59:46.206Z,2.75
2018-05-12T13:02:15.110Z,3.50
2018-05-12T13:04:42.676Z,3.42
2018-05-12T13:07:10.193Z,3.65
2018-05-12T13:09:37.744Z,3.55
2018-05-12T13:12:05.281Z,4.10
2018-05-12T13:14:32.871Z,3.85
2018-05-12T13:17:00.399Z,3.35
2018-05-12T13:19:27.942Z,3.55
2018-05-12T13:21:55.485Z,3.25
2018-05-12T13:24:23.086Z,5.00
2018-05-12T13:26:50.632Z,6.10
2018-05-12T13:29:18.998Z,5.30
2018-05-12T13:31:47.289Z,5.47
2018-05-12T13:34:14.806Z,6.05
2018-05-12T13:36:42.370Z,5.43
2018-05-12T13:39:10.672Z,4.55
2018-05-12T13:41:38.213Z,5.65
2018-05-12T13:44:06.218Z,4.78
2018-05-12T13:46:34.534Z,4.65
2018-05-12T13:49:02.066Z,5.22
2018-05-12T13:51:29.634Z,5.03
2018-05-12T13:53:57.205Z,7.10
2018-05-12T13:56:25.561Z,6.15
2018-05-12T13:58:53.103Z,7.25
2018-05-12T14:01:20.725Z,7.07
2018-05-12T14:03:49.838Z,5.55
2018-05-12T14:06:17.391Z,5.07
2018-05-12T14:08:45.724Z,5.50
2018-05-12T14:11:13.273Z,4.75
2018-05-12T14:13:40.826Z,4.40
2018-05-12T14:16:08.428Z,3.62
2018-05-12T14:18:35.901Z,2.35
2018-05-12T14:21:03.433Z,2.10
2018-05-12T14:23:30.993Z,2.30
2018-05-12T14:25:58.573Z,2.20
2018-05-12T14:28:26.884Z,2.08
2018-05-12T14:30:55.188Z,2.30
2018-05-12T14:33:22.752Z,2.10
2018-05-12T14:35:50.277Z,1.98
2018-05-12T14:38:18.663Z,2.87
2018-05-12T14:40:46.184Z,1.58
2018-05-12T14:43:14.496Z,1.60
2018-05-12T14:45:42.043Z,1.50
2018-05-12T14:48:10.350Z,1.60
2018-05-12T14:50:38.697Z,1.75
2018-05-12T14:53:06.227Z,2.35
2018-05-12T14:55:33.777Z,1.92
2018-05-12T14:58:01.353Z,2.87
2018-05-12T15:00:29.662Z,4.22
2018-05-12T15:02:58.011Z,1.70
2018-05-12T15:05:25.529Z,2.37
2018-05-12T15:07:53.916Z,1.30
2018-05-12T15:10:22.167Z,1.23
2018-05-12T15:12:49.734Z,1.67
2018-05-12T15:15:17.330Z,1.25
2018-05-12T15:17:44.865Z,1.42
2018-05-12T15:20:12.409Z,1.83
2018-05-12T15:22:40.042Z,2.75
2018-05-12T15:25:08.201Z,2.35
2018-05-12T15:27:35.687Z,1.35
2018-05-12T15:30:03.228Z,1.90
2018-05-12T15:32:32.455Z,1.50
2018-05-12T15:34:59.990Z,2.37
2018-05-12T15:37:27.541Z,2.20
2018-05-12T15:39:55.852Z,1.95
2018-05-12T15:42:24.153Z,2.15
2018-05-12T15:44:52.474Z,2.50
2018-05-12T15:47:20.818Z,2.33
2018-05-12T15:49:48.387Z,5.03
2018-05-12T15:52:15.938Z,5.45
2018-05-12T15:54:43.449Z,3.10
2018-05-12T15:57:11.035Z,2.80
2018-05-12T15:59:38.568Z,2.78
2018-05-12T16:02:06.871Z,3.05
2018-05-12T16:04:34.399Z,5.22
2018-05-12T16:07:01.933Z,2.72
2018-05-12T16:09:30.310Z,3.53
2018-05-12T16:11:58.605Z,3.03
2018-05-12T16:14:26.177Z,3.95
2018-05-12T16:16:53.792Z,2.62
2018-05-12T16:19:21.326Z,2.90
2018-05-12T16:21:48.836Z,2.53
2018-05-12T16:24:17.145Z,6.47
2018-05-12T16:26:44.665Z,4.43
2018-05-12T16:29:12.970Z,3.33
2018-05-12T16:31:40.591Z,3.80
2018-05-12T16:34:08.077Z,3.33
2018-05-12T16:36:36.393Z,4.72
2018-05-12T16:39:03.921Z,3.78
2018-05-12T16:41:31.461Z,5.40
2018-05-12T16:43:59.016Z,8.68
2018-05-12T16:46:27.351Z,4.25
2018-05-12T16:48:54.901Z,3.92
2018-05-12T16:51:22.439Z,3.85
2018-05-12T16:53:49.983Z,5.47
2018-05-12T16:56:17.545Z,3.40
2018-05-12T16:58:45.834Z,3.25
2018-05-12T17:01:13.361Z,3.05
2018-05-12T17:03:40.901Z,3.78
2018-05-12T17:06:09.213Z,3.53
2018-05-12T17:08:37.644Z,3.05
2018-05-12T17:11:05.551Z,5.78
2018-05-12T17:13:33.874Z,4.95
2018-05-12T17:16:01.404Z,2.92
2018-05-12T17:18:29.732Z,3.28
2018-05-12T17:20:57.262Z,4.95
2018-05-12T17:23:24.907Z,4.28
2018-05-12T17:25:52.361Z,3.60
2018-05-12T17:28:19.948Z,3.30
2018-05-12T17:30:47.506Z,3.60
2018-05-12T17:33:15.082Z,3.60
2018-05-12T17:35:43.565Z,6.30
2018-05-12T17:38:11.081Z,3.47
2018-05-12T17:40:39.437Z,3.50
2018-05-12T17:43:06.959Z,5.15
2018-05-12T17:45:34.506Z,4.40
2018-05-12T17:48:02.069Z,6.47
2018-05-12T17:50:29.613Z,4.80
2018-05-12T17:52:57.913Z,4.82
2018-05-12T17:55:25.461Z,4.77
2018-05-12T17:57:53.762Z,10.30
2018-05-12T18:00:22.289Z,5.33
2018-05-12T18:02:50.607Z,4.93
2018-05-12T18:05:18.159Z,5.50
2018-05-12T18:07:45.695Z,4.77
2018-05-12T18:10:13.218Z,5.60
2018-05-12T18:12:40.770Z,6.03
2018-05-12T18:15:08.277Z,6.37
2018-05-12T18:17:35.835Z,7.63
2018-05-12T18:20:04.136Z,5.73
2018-05-12T18:22:31.682Z,4.90
2018-05-12T18:24:59.197Z,5.20
2018-05-12T18:27:27.530Z,7.67
2018-05-12T18:29:55.045Z,6.43
2018-05-12T18:32:23.370Z,6.67
2018-05-12T18:34:50.933Z,9.27
2018-05-12T18:37:18.498Z,7.80
2018-05-12T18:39:46.024Z,9.73
2018-05-12T18:42:13.572Z,9.07
2018-05-12T18:44:41.909Z,9.00
2018-05-12T18:47:09.448Z,11.30
2018-05-12T18:49:36.978Z,8.63
2018-05-12T18:52:04.592Z,7.00
2018-05-12T18:54:32.136Z,9.80
2018-05-12T18:56:59.673Z,7.53
2018-05-12T18:59:27.973Z,5.67
2018-05-12T19:01:55.486Z,6.87
2018-05-12T19:04:23.805Z,5.80
2018-05-12T19:06:51.347Z,6.73
2018-05-12T19:09:18.926Z,7.83
2018-05-12T19:11:46.438Z,7.77
2018-05-12T19:14:14.780Z,7.93
2018-05-12T19:16:42.569Z,6.23
2018-05-12T19:19:10.885Z,8.10
2018-05-12T19:21:38.410Z,6.13
2018-05-12T19:24:05.925Z,4.90
2018-05-12T19:26:34.281Z,5.50
2018-05-12T19:29:01.884Z,4.30
2018-05-12T19:31:29.436Z,4.30
2018-05-12T19:33:56.961Z,5.27
2018-05-12T19:36:24.507Z,5.60
2018-05-12T19:38:52.285Z,5.00
2018-05-12T19:41:19.835Z,5.23
2018-05-12T19:43:47.411Z,9.80
2018-05-12T19:46:15.670Z,5.33
2018-05-12T19:48:43.981Z,5.20
2018-05-12T19:51:11.564Z,6.20
2018-05-12T19:53:39.119Z,6.53
2018-05-12T19:56:06.659Z,5.10
2018-05-12T19:58:34.196Z,6.43
2018-05-12T20:01:01.820Z,6.03
2018-05-12T20:03:30.126Z,6.70
2018-05-12T20:05:58.407Z,6.30
2018-05-12T20:08:25.942Z,6.47
2018-05-12T20:10:54.250Z,6.63
2018-05-12T20:13:21.796Z,7.13
2018-05-12T20:15:50.094Z,8.87
2018-05-12T20:18:18.373Z,8.57
2018-05-12T20:20:45.885Z,7.50
2018-05-12T20:23:13.887Z,6.37
2018-05-12T20:25:42.251Z,6.50
2018-05-12T20:28:09.827Z,6.50
2018-05-12T20:30:37.366Z,8.10
2018-05-12T20:33:05.651Z,6.90
2018-05-12T20:35:33.205Z,6.53
2018-05-12T20:38:00.727Z,8.93
2018-05-12T20:40:28.552Z,8.00
2018-05-12T20:42:56.074Z,6.60
2018-05-12T20:45:24.410Z,6.90
2018-05-12T20:47:51.925Z,6.93
2018-05-12T20:50:20.225Z,7.37
2018-05-12T20:52:47.753Z,7.57
2018-05-12T20:55:16.062Z,6.83
2018-05-12T21:00:23.325Z,10.27
2018-05-12T21:02:50.881Z,7.40
2018-05-12T21:05:18.458Z,7.27
2018-05-12T21:07:46.770Z,7.57
2018-05-12T21:10:14.279Z,8.10
2018-05-12T21:12:42.598Z,7.00
2018-05-12T21:15:10.147Z,7.23
2018-05-12T21:17:37.725Z,7.33
2018-05-12T21:20:05.433Z,13.07
2018-05-12T21:22:33.733Z,7.47
2018-05-12T21:25:01.284Z,7.23
2018-05-12T21:27:28.841Z,8.63
2018-05-12T21:29:57.131Z,8.80
2018-05-12T21:32:25.469Z,8.87
2018-05-12T21:34:53.121Z,9.40
2018-05-12T21:37:21.501Z,10.23
2018-05-12T21:39:49.035Z,8.30
2018-05-12T21:42:16.580Z,7.53
2018-05-12T21:44:44.094Z,10.17
2018-05-12T21:47:13.162Z,10.00
2018-05-12T21:49:40.674Z,8.47
2018-05-12T21:52:08.265Z,7.73
2018-05-12T21:54:35.834Z,10.33
2018-05-12T21:57:03.357Z,7.90
2018-05-12T21:59:30.911Z,7.30
2018-05-12T22:01:59.229Z,8.13
2018-05-12T22:04:27.441Z,8.23
2018-05-12T22:06:54.954Z,8.43
2018-05-12T22:09:22.485Z,7.97
2018-05-12T22:11:50.754Z,7.73
2018-05-12T22:14:19.064Z,8.63
2018-05-12T22:16:50.296Z,8.13
2018-05-12T22:19:17.837Z,8.00
2018-05-12T22:24:18.118Z,9.87
2018-05-12T22:26:45.741Z,9.73
2018-05-12T22:29:14.046Z,7.70
2018-05-12T22:31:41.553Z,7.47
2018-05-12T22:34:09.086Z,7.17
2018-05-12T22:36:36.595Z,7.63
2018-05-12T22:39:05.126Z,7.80
2018-05-12T22:41:32.663Z,8.07
2018-05-12T22:44:00.185Z,8.20
2018-05-12T22:46:27.741Z,7.73
2018-05-12T22:48:55.255Z,8.33
2018-05-12T22:51:22.790Z,7.87
2018-05-12T22:53:50.378Z,8.00
2018-05-12T22:56:17.938Z,7.83
2018-05-12T22:58:45.453Z,8.03
2018-05-12T23:01:16.086Z,8.43
2018-05-12T23:03:44.364Z,8.63
2018-05-12T23:06:12.654Z,7.57
2018-05-12T23:08:41.063Z,8.50
2018-05-12T23:11:08.630Z,7.90
2018-05-12T23:13:36.141Z,8.30
2018-05-12T23:16:04.431Z,8.33
2018-05-12T23:18:32.040Z,7.00
2018-05-12T23:21:00.262Z,8.20
2018-05-12T23:23:27.803Z,6.60
2018-05-12T23:25:55.321Z,6.77
2018-05-12T23:28:22.874Z,8.43
2018-05-12T23:30:50.411Z,6.50
2018-05-12T23:33:18.486Z,6.37
2018-05-12T23:35:45.997Z,5.90
2018-05-12T23:38:13.533Z,5.97
2018-05-12T23:40:41.832Z,5.60
2018-05-12T23:43:10.872Z,6.07
2018-05-12T23:45:38.399Z,6.07
2018-05-12T23:48:05.995Z,5.20
2018-05-12T23:50:33.499Z,5.57
2018-05-12T23:53:01.008Z,7.87
2018-05-12T23:55:28.553Z,6.70
2018-05-12T23:57:56.907Z,6.07
